sensor_id;sensor_type;location;lat;lon;timestamp;pressure;altitude;pressure_sealevel;temperature;humidity
62124;BME280;48110;47.532;19.078;2024-03-17T00:00:54;100573.56;;;11.61;100.00
62124;BME280;48110;47.532;19.078;2024-03-17T00:03:56;100569.72;;;11.64;100.00
62124;BME280;48110;47.532;19.078;2024-03-17T00:06:58;100572.53;;;11.62;100.00
62124;BME280;48110;47.532;19.078;2024-03-17T00:10:00;100571.53;;;11.63;100.00
62124;BME280;48110;47.532;19.078;2024-03-17T00:13:02;100575.84;;;11.72;100.00
62124;BME280;48110;47.532;19.078;2024-03-17T00:16:04;100579.81;;;11.68;100.00
62124;BME280;48110;47.532;19.078;2024-03-17T00:19:06;100580.00;;;11.67;100.00
62124;BME280;48110;47.532;19.078;2024-03-17T00:22:12;100579.19;;;11.66;100.00
62124;BME280;48110;47.532;19.078;2024-03-17T00:25:15;100585.81;;;11.62;100.00
62124;BME280;48110;47.532;19.078;2024-03-17T00:28:17;100580.69;;;11.61;100.00
62124;BME280;48110;47.532;19.078;2024-03-17T00:31:19;100579.19;;;11.58;100.00
62124;BME280;48110;47.532;19.078;2024-03-17T00:34:22;100578.19;;;11.59;100.00
62124;BME280;48110;47.532;19.078;2024-03-17T00:37:23;100582.69;;;11.51;100.00
62124;BME280;48110;47.532;19.078;2024-03-17T00:40:26;100576.37;;;11.44;100.00
62124;BME280;48110;47.532;19.078;2024-03-17T00:43:27;100585.53;;;11.33;100.00
62124;BME280;48110;47.532;19.078;2024-03-17T00:46:30;100586.37;;;11.25;100.00
62124;BME280;48110;47.532;19.078;2024-03-17T00:49:31;100580.41;;;11.15;100.00
62124;BME280;48110;47.532;19.078;2024-03-17T00:52:33;100597.34;;;11.06;100.00
62124;BME280;48110;47.532;19.078;2024-03-17T00:55:35;100581.91;;;10.94;100.00
62124;BME280;48110;47.532;19.078;2024-03-17T00:58:37;100580.88;;;10.86;100.00
62124;BME280;48110;47.532;19.078;2024-03-17T01:01:40;100575.91;;;10.67;100.00
62124;BME280;48110;47.532;19.078;2024-03-17T01:04:43;100578.34;;;10.53;100.00
62124;BME280;48110;47.532;19.078;2024-03-17T01:07:44;100579.87;;;10.55;100.00
62124;BME280;48110;47.532;19.078;2024-03-17T01:10:49;100591.41;;;10.46;100.00
62124;BME280;48110;47.532;19.078;2024-03-17T01:13:54;100591.25;;;10.39;100.00
62124;BME280;48110;47.532;19.078;2024-03-17T01:16:56;100596.56;;;10.39;100.00
62124;BME280;48110;47.532;19.078;2024-03-17T01:19:58;100580.66;;;10.48;100.00
62124;BME280;48110;47.532;19.078;2024-03-17T01:23:01;100580.84;;;10.62;100.00
62124;BME280;48110;47.532;19.078;2024-03-17T01:26:03;100581.50;;;10.56;100.00
62124;BME280;48110;47.532;19.078;2024-03-17T01:29:05;100579.69;;;10.49;100.00
62124;BME280;48110;47.532;19.078;2024-03-17T01:32:07;100581.12;;;10.35;100.00
62124;BME280;48110;47.532;19.078;2024-03-17T01:35:09;100575.78;;;10.19;100.00
62124;BME280;48110;47.532;19.078;2024-03-17T01:38:13;100583.19;;;10.15;100.00
62124;BME280;48110;47.532;19.078;2024-03-17T01:41:16;100577.09;;;10.23;100.00
62124;BME280;48110;47.532;19.078;2024-03-17T01:44:22;100570.97;;;10.22;100.00
62124;BME280;48110;47.532;19.078;2024-03-17T01:47:25;100562.66;;;10.17;100.00
62124;BME280;48110;47.532;19.078;2024-03-17T01:50:36;100564.44;;;10.09;100.00
62124;BME280;48110;47.532;19.078;2024-03-17T01:53:39;100570.31;;;10.20;100.00
62124;BME280;48110;47.532;19.078;2024-03-17T01:56:42;100578.28;;;10.28;100.00
62124;BME280;48110;47.532;19.078;2024-03-17T01:59:46;100565.38;;;10.33;100.00
62124;BME280;48110;47.532;19.078;2024-03-17T02:02:48;100573.66;;;10.30;100.00
62124;BME280;48110;47.532;19.078;2024-03-17T02:05:50;100569.19;;;10.31;100.00
62124;BME280;48110;47.532;19.078;2024-03-17T02:08:54;100580.78;;;10.30;100.00
62124;BME280;48110;47.532;19.078;2024-03-17T02:11:56;100578.44;;;10.27;100.00
62124;BME280;48110;47.532;19.078;2024-03-17T02:14:58;100574.81;;;10.28;100.00
62124;BME280;48110;47.532;19.078;2024-03-17T02:18:00;100592.03;;;10.32;100.00
62124;BME280;48110;47.532;19.078;2024-03-17T02:21:02;100588.88;;;10.28;100.00
62124;BME280;48110;47.532;19.078;2024-03-17T02:24:04;100599.00;;;10.25;100.00
62124;BME280;48110;47.532;19.078;2024-03-17T02:27:06;100599.00;;;10.25;100.00
62124;BME280;48110;47.532;19.078;2024-03-17T02:30:09;100589.84;;;10.19;100.00
62124;BME280;48110;47.532;19.078;2024-03-17T02:33:11;100597.91;;;10.10;100.00
62124;BME280;48110;47.532;19.078;2024-03-17T02:36:13;100607.47;;;10.02;100.00
62124;BME280;48110;47.532;19.078;2024-03-17T02:39:15;100599.53;;;10.02;100.00
62124;BME280;48110;47.532;19.078;2024-03-17T02:42:36;100597.88;;;10.01;100.00
62124;BME280;48110;47.532;19.078;2024-03-17T02:45:39;100603.81;;;9.95;100.00
62124;BME280;48110;47.532;19.078;2024-03-17T02:48:42;100608.28;;;9.95;100.00
62124;BME280;48110;47.532;19.078;2024-03-17T02:51:48;100608.19;;;9.79;100.00
62124;BME280;48110;47.532;19.078;2024-03-17T02:54:51;100614.78;;;9.75;100.00
62124;BME280;48110;47.532;19.078;2024-03-17T02:57:54;100610.94;;;9.69;100.00
62124;BME280;48110;47.532;19.078;2024-03-17T03:00:58;100611.72;;;9.62;100.00
62124;BME280;48110;47.532;19.078;2024-03-17T03:04:02;100600.63;;;9.58;100.00
62124;BME280;48110;47.532;19.078;2024-03-17T03:07:04;100592.97;;;9.55;100.00
62124;BME280;48110;47.532;19.078;2024-03-17T03:10:07;100600.56;;;9.50;100.00
62124;BME280;48110;47.532;19.078;2024-03-17T03:13:09;100595.72;;;9.45;100.00
62124;BME280;48110;47.532;19.078;2024-03-17T03:16:12;100592.87;;;9.39;100.00
62124;BME280;48110;47.532;19.078;2024-03-17T03:19:16;100603.66;;;9.45;100.00
62124;BME280;48110;47.532;19.078;2024-03-17T03:22:18;100613.13;;;9.48;100.00
62124;BME280;48110;47.532;19.078;2024-03-17T03:25:23;100622.91;;;9.47;100.00
62124;BME280;48110;47.532;19.078;2024-03-17T03:28:26;100623.03;;;9.46;100.00
62124;BME280;48110;47.532;19.078;2024-03-17T03:31:28;100635.62;;;9.44;100.00
62124;BME280;48110;47.532;19.078;2024-03-17T03:34:30;100627.81;;;9.42;100.00
62124;BME280;48110;47.532;19.078;2024-03-17T03:37:32;100632.12;;;9.43;100.00
62124;BME280;48110;47.532;19.078;2024-03-17T03:40:34;100615.66;;;9.32;100.00
62124;BME280;48110;47.532;19.078;2024-03-17T03:43:36;100628.50;;;9.27;100.00
62124;BME280;48110;47.532;19.078;2024-03-17T03:46:38;100639.25;;;9.25;100.00
62124;BME280;48110;47.532;19.078;2024-03-17T03:49:40;100639.56;;;9.22;100.00
62124;BME280;48110;47.532;19.078;2024-03-17T03:52:42;100660.22;;;9.19;100.00
62124;BME280;48110;47.532;19.078;2024-03-17T03:55:44;100659.31;;;9.10;100.00
62124;BME280;48110;47.532;19.078;2024-03-17T03:58:46;100663.78;;;9.09;100.00
62124;BME280;48110;47.532;19.078;2024-03-17T04:01:48;100680.13;;;9.05;100.00
62124;BME280;48110;47.532;19.078;2024-03-17T04:04:51;100680.84;;;8.97;100.00
62124;BME280;48110;47.532;19.078;2024-03-17T04:07:53;100688.53;;;8.91;100.00
62124;BME280;48110;47.532;19.078;2024-03-17T04:10:56;100689.69;;;8.88;100.00
62124;BME280;48110;47.532;19.078;2024-03-17T04:13:58;100681.69;;;8.80;100.00
62124;BME280;48110;47.532;19.078;2024-03-17T04:17:02;100677.66;;;8.76;100.00
62124;BME280;48110;47.532;19.078;2024-03-17T04:20:05;100690.28;;;8.82;100.00
62124;BME280;48110;47.532;19.078;2024-03-17T04:23:09;100682.34;;;8.82;100.00
62124;BME280;48110;47.532;19.078;2024-03-17T04:26:11;100692.69;;;8.76;100.00
62124;BME280;48110;47.532;19.078;2024-03-17T04:29:14;100688.00;;;8.69;100.00
62124;BME280;48110;47.532;19.078;2024-03-17T04:32:16;100694.41;;;8.67;100.00
62124;BME280;48110;47.532;19.078;2024-03-17T04:35:18;100711.84;;;8.60;100.00
62124;BME280;48110;47.532;19.078;2024-03-17T04:38:20;100708.25;;;8.61;100.00
62124;BME280;48110;47.532;19.078;2024-03-17T04:41:22;100704.81;;;8.51;100.00
62124;BME280;48110;47.532;19.078;2024-03-17T04:44:24;100709.31;;;8.41;100.00
62124;BME280;48110;47.532;19.078;2024-03-17T04:47:26;100696.22;;;8.39;100.00
62124;BME280;48110;47.532;19.078;2024-03-17T04:50:28;100693.72;;;8.38;100.00
62124;BME280;48110;47.532;19.078;2024-03-17T04:53:33;100698.63;;;8.33;100.00
62124;BME280;48110;47.532;19.078;2024-03-17T04:56:35;100713.50;;;8.34;100.00
62124;BME280;48110;47.532;19.078;2024-03-17T04:59:37;100713.66;;;8.32;100.00
62124;BME280;48110;47.532;19.078;2024-03-17T05:02:40;100714.63;;;8.31;100.00
62124;BME280;48110;47.532;19.078;2024-03-17T05:05:42;100706.25;;;8.26;100.00
62124;BME280;48110;47.532;19.078;2024-03-17T05:08:44;100708.22;;;8.24;100.00
62124;BME280;48110;47.532;19.078;2024-03-17T05:11:47;100713.25;;;8.17;100.00
62124;BME280;48110;47.532;19.078;2024-03-17T05:14:48;100714.66;;;8.12;100.00
62124;BME280;48110;47.532;19.078;2024-03-17T05:17:50;100714.38;;;8.05;100.00
62124;BME280;48110;47.532;19.078;2024-03-17T05:21:00;100705.78;;;8.03;100.00
62124;BME280;48110;47.532;19.078;2024-03-17T05:24:02;100723.72;;;8.00;100.00
62124;BME280;48110;47.532;19.078;2024-03-17T05:27:04;100714.97;;;7.90;100.00
62124;BME280;48110;47.532;19.078;2024-03-17T05:30:06;100721.37;;;7.87;100.00
62124;BME280;48110;47.532;19.078;2024-03-17T05:33:10;100732.81;;;7.78;100.00
62124;BME280;48110;47.532;19.078;2024-03-17T05:36:12;100729.88;;;7.71;100.00
62124;BME280;48110;47.532;19.078;2024-03-17T05:39:13;100747.28;;;7.64;100.00
62124;BME280;48110;47.532;19.078;2024-03-17T05:42:15;100755.87;;;7.57;100.00
62124;BME280;48110;47.532;19.078;2024-03-17T05:45:17;100741.59;;;7.50;100.00
62124;BME280;48110;47.532;19.078;2024-03-17T05:48:20;100763.25;;;7.43;100.00
62124;BME280;48110;47.532;19.078;2024-03-17T05:51:22;100774.78;;;7.42;100.00
62124;BME280;48110;47.532;19.078;2024-03-17T05:54:27;100764.75;;;7.36;100.00
62124;BME280;48110;47.532;19.078;2024-03-17T05:57:29;100771.03;;;7.35;100.00
62124;BME280;48110;47.532;19.078;2024-03-17T06:00:31;100767.81;;;7.32;100.00
62124;BME280;48110;47.532;19.078;2024-03-17T06:03:34;100776.97;;;7.28;100.00
62124;BME280;48110;47.532;19.078;2024-03-17T06:06:37;100774.88;;;7.22;100.00
62124;BME280;48110;47.532;19.078;2024-03-17T06:09:40;100775.03;;;7.20;100.00
62124;BME280;48110;47.532;19.078;2024-03-17T06:12:41;100768.22;;;7.27;100.00
62124;BME280;48110;47.532;19.078;2024-03-17T06:15:44;100753.66;;;7.33;100.00
62124;BME280;48110;47.532;19.078;2024-03-17T06:18:48;100748.66;;;7.39;100.00
62124;BME280;48110;47.532;19.078;2024-03-17T06:21:53;100760.62;;;7.53;100.00
62124;BME280;48110;47.532;19.078;2024-03-17T06:24:55;100766.97;;;7.79;100.00
62124;BME280;48110;47.532;19.078;2024-03-17T06:27:57;100760.47;;;7.93;100.00
62124;BME280;48110;47.532;19.078;2024-03-17T06:30:59;100753.13;;;8.24;100.00
62124;BME280;48110;47.532;19.078;2024-03-17T06:34:01;100771.22;;;8.28;100.00
62124;BME280;48110;47.532;19.078;2024-03-17T06:37:03;100772.78;;;8.12;100.00
62124;BME280;48110;47.532;19.078;2024-03-17T06:40:06;100763.94;;;7.94;100.00
62124;BME280;48110;47.532;19.078;2024-03-17T06:43:08;100755.66;;;8.35;100.00
62124;BME280;48110;47.532;19.078;2024-03-17T06:46:10;100759.09;;;8.45;100.00
62124;BME280;48110;47.532;19.078;2024-03-17T06:49:12;100769.72;;;8.63;100.00
62124;BME280;48110;47.532;19.078;2024-03-17T06:52:14;100765.25;;;8.36;100.00
62124;BME280;48110;47.532;19.078;2024-03-17T06:55:17;100769.28;;;8.67;100.00
62124;BME280;48110;47.532;19.078;2024-03-17T06:58:21;100777.78;;;8.98;100.00
62124;BME280;48110;47.532;19.078;2024-03-17T07:01:24;100783.03;;;9.26;100.00
62124;BME280;48110;47.532;19.078;2024-03-17T07:04:26;100786.78;;;8.78;100.00
62124;BME280;48110;47.532;19.078;2024-03-17T07:07:29;100783.03;;;9.08;100.00
62124;BME280;48110;47.532;19.078;2024-03-17T07:10:31;100793.03;;;9.49;100.00
62124;BME280;48110;47.532;19.078;2024-03-17T07:13:34;100789.78;;;9.55;100.00
62124;BME280;48110;47.532;19.078;2024-03-17T07:16:37;100793.81;;;9.42;100.00
62124;BME280;48110;47.532;19.078;2024-03-17T07:19:39;100788.97;;;9.73;100.00
62124;BME280;48110;47.532;19.078;2024-03-17T07:22:41;100791.69;;;9.28;100.00
62124;BME280;48110;47.532;19.078;2024-03-17T07:25:51;100788.50;;;9.42;100.00
62124;BME280;48110;47.532;19.078;2024-03-17T07:28:54;100781.84;;;9.38;100.00
62124;BME280;48110;47.532;19.078;2024-03-17T07:31:56;100792.06;;;9.86;100.00
62124;BME280;48110;47.532;19.078;2024-03-17T07:34:58;100784.75;;;10.23;100.00
62124;BME280;48110;47.532;19.078;2024-03-17T07:37:59;100781.38;;;10.39;100.00
62124;BME280;48110;47.532;19.078;2024-03-17T07:41:03;100782.87;;;10.75;99.23
62124;BME280;48110;47.532;19.078;2024-03-17T07:44:06;100780.25;;;11.25;93.25
62124;BME280;48110;47.532;19.078;2024-03-17T07:47:09;100793.44;;;11.59;87.48
62124;BME280;48110;47.532;19.078;2024-03-17T07:50:11;100799.63;;;11.84;84.71
62124;BME280;48110;47.532;19.078;2024-03-17T07:53:14;100785.31;;;11.69;86.00
62124;BME280;48110;47.532;19.078;2024-03-17T07:56:17;100790.91;;;12.55;80.71
62124;BME280;48110;47.532;19.078;2024-03-17T07:59:19;100779.97;;;12.42;77.40
62124;BME280;48110;47.532;19.078;2024-03-17T08:02:21;100787.44;;;11.57;82.44
62124;BME280;48110;47.532;19.078;2024-03-17T08:05:23;100786.56;;;12.54;78.50
62124;BME280;48110;47.532;19.078;2024-03-17T08:08:24;100786.59;;;13.01;74.38
62124;BME280;48110;47.532;19.078;2024-03-17T08:11:26;100782.69;;;13.20;71.99
62124;BME280;48110;47.532;19.078;2024-03-17T08:14:29;100791.81;;;12.78;72.75
62124;BME280;48110;47.532;19.078;2024-03-17T08:17:31;100788.09;;;12.95;70.34
62124;BME280;48110;47.532;19.078;2024-03-17T08:20:36;100794.84;;;12.75;69.77
62124;BME280;48110;47.532;19.078;2024-03-17T08:23:38;100789.97;;;12.15;72.79
62124;BME280;48110;47.532;19.078;2024-03-17T08:26:44;100796.81;;;12.10;72.46
62124;BME280;48110;47.532;19.078;2024-03-17T08:29:47;100796.47;;;12.84;69.07
62124;BME280;48110;47.532;19.078;2024-03-17T08:32:49;100804.72;;;13.67;65.97
62124;BME280;48110;47.532;19.078;2024-03-17T08:35:58;100805.00;;;13.19;65.09
62124;BME280;48110;47.532;19.078;2024-03-17T08:39:00;100797.75;;;13.35;64.41
62124;BME280;48110;47.532;19.078;2024-03-17T08:42:03;100794.34;;;13.49;63.24
62124;BME280;48110;47.532;19.078;2024-03-17T08:45:05;100800.97;;;13.23;61.16
62124;BME280;48110;47.532;19.078;2024-03-17T08:48:07;100804.78;;;13.28;60.18
62124;BME280;48110;47.532;19.078;2024-03-17T08:51:09;100803.91;;;14.04;58.32
62124;BME280;48110;47.532;19.078;2024-03-17T08:54:12;100801.25;;;14.04;58.12
62124;BME280;48110;47.532;19.078;2024-03-17T08:57:14;100796.25;;;14.76;56.57
62124;BME280;48110;47.532;19.078;2024-03-17T09:00:16;100807.13;;;12.84;60.36
62124;BME280;48110;47.532;19.078;2024-03-17T09:03:18;100794.00;;;11.21;67.99
62124;BME280;48110;47.532;19.078;2024-03-17T09:06:20;100808.72;;;10.39;73.52
62124;BME280;48110;47.532;19.078;2024-03-17T09:09:23;100804.00;;;10.25;76.69
62124;BME280;48110;47.532;19.078;2024-03-17T09:12:26;100827.78;;;9.99;81.17
62124;BME280;48110;47.532;19.078;2024-03-17T09:15:29;100828.56;;;9.92;80.51
62124;BME280;48110;47.532;19.078;2024-03-17T09:18:32;100822.50;;;9.82;80.40
62124;BME280;48110;47.532;19.078;2024-03-17T09:21:34;100826.59;;;9.76;82.66
62124;BME280;48110;47.532;19.078;2024-03-17T09:24:36;100828.94;;;9.79;82.37
62124;BME280;48110;47.532;19.078;2024-03-17T09:27:38;100827.13;;;9.80;84.64
62124;BME280;48110;47.532;19.078;2024-03-17T09:30:46;100829.84;;;9.70;84.98
62124;BME280;48110;47.532;19.078;2024-03-17T09:33:48;100841.50;;;9.77;82.64
62124;BME280;48110;47.532;19.078;2024-03-17T09:36:50;100835.59;;;9.83;83.36
62124;BME280;48110;47.532;19.078;2024-03-17T09:39:52;100834.69;;;9.75;82.29
62124;BME280;48110;47.532;19.078;2024-03-17T09:42:54;100834.09;;;9.81;78.96
62124;BME280;48110;47.532;19.078;2024-03-17T09:45:56;100836.87;;;9.79;80.47
62124;BME280;48110;47.532;19.078;2024-03-17T09:49:01;100831.66;;;9.70;76.43
62124;BME280;48110;47.532;19.078;2024-03-17T09:52:03;100825.97;;;9.65;75.89
62124;BME280;48110;47.532;19.078;2024-03-17T09:55:17;100821.59;;;9.91;74.43
62124;BME280;48110;47.532;19.078;2024-03-17T09:58:19;100842.94;;;9.89;72.92
62124;BME280;48110;47.532;19.078;2024-03-17T10:01:21;100833.87;;;9.92;71.47
62124;BME280;48110;47.532;19.078;2024-03-17T10:04:32;100814.75;;;10.06;71.05
62124;BME280;48110;47.532;19.078;2024-03-17T10:07:38;100823.87;;;10.21;72.47
62124;BME280;48110;47.532;19.078;2024-03-17T10:10:40;100814.25;;;10.20;67.77
62124;BME280;48110;47.532;19.078;2024-03-17T10:13:43;100825.38;;;10.06;67.71
62124;BME280;48110;47.532;19.078;2024-03-17T10:16:46;100813.53;;;10.18;67.54
62124;BME280;48110;47.532;19.078;2024-03-17T10:19:48;100811.56;;;10.46;68.88
62124;BME280;48110;47.532;19.078;2024-03-17T10:23:00;100804.78;;;10.43;68.66
62124;BME280;48110;47.532;19.078;2024-03-17T10:26:02;100795.84;;;10.44;66.72
62124;BME280;48110;47.532;19.078;2024-03-17T10:32:29;100797.56;;;10.62;65.40
62124;BME280;48110;47.532;19.078;2024-03-17T10:35:33;100792.41;;;10.60;65.34
62124;BME280;48110;47.532;19.078;2024-03-17T10:38:35;100802.13;;;10.43;64.85
62124;BME280;48110;47.532;19.078;2024-03-17T10:41:37;100790.00;;;10.41;64.51
62124;BME280;48110;47.532;19.078;2024-03-17T10:44:41;100803.16;;;10.51;64.00
62124;BME280;48110;47.532;19.078;2024-03-17T10:47:47;100798.28;;;10.72;62.99
62124;BME280;48110;47.532;19.078;2024-03-17T10:50:50;100807.59;;;10.76;62.71
62124;BME280;48110;47.532;19.078;2024-03-17T10:53:56;100800.31;;;10.78;61.69
62124;BME280;48110;47.532;19.078;2024-03-17T10:57:35;100814.72;;;10.75;61.96
62124;BME280;48110;47.532;19.078;2024-03-17T11:00:40;100808.22;;;10.70;62.41
62124;BME280;48110;47.532;19.078;2024-03-17T11:03:46;100816.19;;;11.04;61.69
62124;BME280;48110;47.532;19.078;2024-03-17T11:06:49;100797.03;;;11.34;58.31
62124;BME280;48110;47.532;19.078;2024-03-17T11:09:52;100788.44;;;14.22;52.78
62124;BME280;48110;47.532;19.078;2024-03-17T11:12:56;100791.47;;;15.22;48.39
62124;BME280;48110;47.532;19.078;2024-03-17T11:15:59;100806.13;;;16.32;45.81
62124;BME280;48110;47.532;19.078;2024-03-17T11:19:07;100809.72;;;17.62;43.63
62124;BME280;48110;47.532;19.078;2024-03-17T11:22:48;100811.88;;;16.57;42.76
62124;BME280;48110;47.532;19.078;2024-03-17T11:25:53;100804.16;;;16.41;43.42
62124;BME280;48110;47.532;19.078;2024-03-17T11:28:55;100811.62;;;17.88;41.28
62124;BME280;48110;47.532;19.078;2024-03-17T11:31:58;100812.47;;;18.15;40.58
62124;BME280;48110;47.532;19.078;2024-03-17T11:35:13;100801.19;;;17.46;39.77
62124;BME280;48110;47.532;19.078;2024-03-17T11:38:50;100802.94;;;18.78;37.93
62124;BME280;48110;47.532;19.078;2024-03-17T11:41:52;100805.66;;;18.58;37.80
62124;BME280;48110;47.532;19.078;2024-03-17T11:45:00;100800.25;;;19.23;36.19
62124;BME280;48110;47.532;19.078;2024-03-17T11:48:11;100808.25;;;18.85;36.28
62124;BME280;48110;47.532;19.078;2024-03-17T11:51:15;100815.38;;;18.00;37.64
62124;BME280;48110;47.532;19.078;2024-03-17T11:54:28;100792.81;;;18.47;37.07
62124;BME280;48110;47.532;19.078;2024-03-17T11:57:31;100798.12;;;18.87;37.08
62124;BME280;48110;47.532;19.078;2024-03-17T12:00:33;100803.59;;;19.94;35.10
62124;BME280;48110;47.532;19.078;2024-03-17T12:03:35;100785.66;;;19.05;36.76
62124;BME280;48110;47.532;19.078;2024-03-17T12:06:37;100779.19;;;18.55;37.64
62124;BME280;48110;47.532;19.078;2024-03-17T12:09:41;100777.22;;;19.40;35.43
62124;BME280;48110;47.532;19.078;2024-03-17T12:12:47;100769.22;;;18.76;36.64
62124;BME280;48110;47.532;19.078;2024-03-17T12:15:50;100775.41;;;20.64;34.19
62124;BME280;48110;47.532;19.078;2024-03-17T12:18:53;100775.03;;;19.93;33.88
62124;BME280;48110;47.532;19.078;2024-03-17T12:21:57;100776.34;;;20.33;32.64
62124;BME280;48110;47.532;19.078;2024-03-17T12:24:59;100785.06;;;19.48;33.18
62124;BME280;48110;47.532;19.078;2024-03-17T12:28:03;100788.72;;;19.60;33.28
62124;BME280;48110;47.532;19.078;2024-03-17T12:31:05;100771.56;;;20.11;32.29
62124;BME280;48110;47.532;19.078;2024-03-17T12:34:07;100780.56;;;20.23;32.64
62124;BME280;48110;47.532;19.078;2024-03-17T12:37:15;100769.47;;;20.13;31.78
62124;BME280;48110;47.532;19.078;2024-03-17T12:40:19;100764.69;;;18.70;32.71
62124;BME280;48110;47.532;19.078;2024-03-17T12:43:22;100745.31;;;19.05;32.93
62124;BME280;48110;47.532;19.078;2024-03-17T12:46:24;100756.75;;;20.63;31.71
62124;BME280;48110;47.532;19.078;2024-03-17T12:49:27;100751.56;;;19.44;32.84
62124;BME280;48110;47.532;19.078;2024-03-17T12:52:32;100744.53;;;20.97;30.71
62124;BME280;48110;47.532;19.078;2024-03-17T12:55:34;100745.03;;;21.53;30.50
62124;BME280;48110;47.532;19.078;2024-03-17T12:59:10;100738.59;;;21.66;28.66
62124;BME280;48110;47.532;19.078;2024-03-17T13:02:31;100736.78;;;19.53;30.08
62124;BME280;48110;47.532;19.078;2024-03-17T13:05:34;100744.06;;;19.08;31.06
62124;BME280;48110;47.532;19.078;2024-03-17T13:08:36;100735.97;;;19.52;30.95
62124;BME280;48110;47.532;19.078;2024-03-17T13:11:38;100734.97;;;19.78;30.40
62124;BME280;48110;47.532;19.078;2024-03-17T13:14:40;100718.50;;;20.11;29.87
62124;BME280;48110;47.532;19.078;2024-03-17T13:17:45;100716.22;;;18.12;31.30
62124;BME280;48110;47.532;19.078;2024-03-17T13:20:48;100717.41;;;19.44;30.58
62124;BME280;48110;47.532;19.078;2024-03-17T13:23:55;100720.84;;;18.76;30.96
62124;BME280;48110;47.532;19.078;2024-03-17T13:26:57;100718.19;;;16.64;33.46
62124;BME280;48110;47.532;19.078;2024-03-17T13:30:05;100727.09;;;17.31;32.91
62124;BME280;48110;47.532;19.078;2024-03-17T13:33:07;100717.53;;;17.03;33.35
62124;BME280;48110;47.532;19.078;2024-03-17T13:36:13;100706.56;;;16.91;33.72
62124;BME280;48110;47.532;19.078;2024-03-17T13:39:17;100704.03;;;16.76;33.07
62124;BME280;48110;47.532;19.078;2024-03-17T13:42:22;100702.41;;;17.89;32.79
62124;BME280;48110;47.532;19.078;2024-03-17T13:45:27;100706.72;;;17.63;32.77
62124;BME280;48110;47.532;19.078;2024-03-17T13:48:37;100697.00;;;18.08;33.01
62124;BME280;48110;47.532;19.078;2024-03-17T13:51:39;100697.66;;;17.64;32.50
62124;BME280;48110;47.532;19.078;2024-03-17T13:54:41;100694.56;;;17.74;33.20
62124;BME280;48110;47.532;19.078;2024-03-17T13:57:44;100691.06;;;18.77;32.76
62124;BME280;48110;47.532;19.078;2024-03-17T14:00:47;100680.47;;;18.11;33.18
62124;BME280;48110;47.532;19.078;2024-03-17T14:03:49;100688.09;;;17.29;34.96
62124;BME280;48110;47.532;19.078;2024-03-17T14:06:51;100684.97;;;18.37;33.47
62124;BME280;48110;47.532;19.078;2024-03-17T14:09:53;100687.72;;;17.91;33.41
62124;BME280;48110;47.532;19.078;2024-03-17T14:12:55;100691.66;;;18.08;32.99
62124;BME280;48110;47.532;19.078;2024-03-17T14:15:58;100681.75;;;16.00;34.97
62124;BME280;48110;47.532;19.078;2024-03-17T14:19:01;100677.84;;;16.03;35.82
62124;BME280;48110;47.532;19.078;2024-03-17T14:22:03;100670.72;;;14.97;38.17
62124;BME280;48110;47.532;19.078;2024-03-17T14:25:06;100660.28;;;15.02;37.80
62124;BME280;48110;47.532;19.078;2024-03-17T14:28:08;100661.91;;;15.18;38.14
62124;BME280;48110;47.532;19.078;2024-03-17T14:31:10;100662.06;;;15.52;37.62
62124;BME280;48110;47.532;19.078;2024-03-17T14:34:13;100655.72;;;15.60;37.32
62124;BME280;48110;47.532;19.078;2024-03-17T14:37:15;100649.94;;;14.13;37.92
62124;BME280;48110;47.532;19.078;2024-03-17T14:40:17;100645.66;;;12.91;40.19
62124;BME280;48110;47.532;19.078;2024-03-17T14:43:24;100649.84;;;12.86;41.48
62124;BME280;48110;47.532;19.078;2024-03-17T14:46:26;100660.53;;;12.47;42.39
62124;BME280;48110;47.532;19.078;2024-03-17T14:49:33;100650.91;;;11.99;43.95
62124;BME280;48110;47.532;19.078;2024-03-17T14:52:35;100655.75;;;11.55;44.92
62124;BME280;48110;47.532;19.078;2024-03-17T14:55:38;100658.44;;;11.47;45.85
62124;BME280;48110;47.532;19.078;2024-03-17T14:58:40;100663.06;;;11.45;46.64
62124;BME280;48110;47.532;19.078;2024-03-17T15:01:42;100667.53;;;11.44;46.83
62124;BME280;48110;47.532;19.078;2024-03-17T15:04:44;100660.06;;;11.23;47.56
62124;BME280;48110;47.532;19.078;2024-03-17T15:07:46;100650.47;;;11.22;46.88
62124;BME280;48110;47.532;19.078;2024-03-17T15:10:48;100668.03;;;11.15;47.08
62124;BME280;48110;47.532;19.078;2024-03-17T15:13:50;100656.72;;;11.05;47.29
62124;BME280;48110;47.532;19.078;2024-03-17T15:16:52;100665.34;;;10.99;48.18
62124;BME280;48110;47.532;19.078;2024-03-17T15:19:54;100642.62;;;10.88;48.46
62124;BME280;48110;47.532;19.078;2024-03-17T15:22:56;100648.72;;;10.73;48.93
62124;BME280;48110;47.532;19.078;2024-03-17T15:26:08;100650.19;;;10.75;49.47
62124;BME280;48110;47.532;19.078;2024-03-17T15:29:10;100648.38;;;10.76;48.80
62124;BME280;48110;47.532;19.078;2024-03-17T15:32:13;100639.25;;;10.70;48.72
62124;BME280;48110;47.532;19.078;2024-03-17T15:35:15;100654.00;;;10.65;48.90
62124;BME280;48110;47.532;19.078;2024-03-17T15:38:17;100648.69;;;10.65;49.86
62124;BME280;48110;47.532;19.078;2024-03-17T15:41:20;100656.97;;;10.70;50.47
62124;BME280;48110;47.532;19.078;2024-03-17T15:44:22;100660.78;;;10.59;50.83
62124;BME280;48110;47.532;19.078;2024-03-17T15:47:25;100655.62;;;10.58;51.39